Time;durP1;ratioP1;P1;durP2;ratioP2;P2;SDS_P1;SDS_P2;PMS_P1;PMS_P2;Temp;Humidity;BMP_temperature;BMP_pressure;BME280_temperature;BME280_humidity;BME280_pressure;Samples;Min_cycle;Max_cycle;Signal;HPM_P1;HPM_P2
2023/10/17 00:05:54;;;;;;;27.40;14.50;;;;;;;6.82;96.66;99565.61;272422;1272;22404;-81
2023/10/17 00:11:59;;;;;;;;;;;;;;;6.75;96.80;99562.25;270503;1272;24075;-81
2023/10/17 00:18:11;;;;;;;30.50;17.70;;;;;;;6.68;97.12;99562.23;270879;1272;23018;-81
2023/10/17 00:24:26;;;;;;;29.20;16.80;;;;;;;6.62;96.79;99562.64;272325;1271;24393;-82
2023/10/17 00:30:30;;;;;;;29.80;15.60;;;;;;;6.57;97.11;99559.90;270425;1272;22543;-81
2023/10/17 00:36:33;;;;;;;30.50;17.50;;;;;;;6.52;97.47;99559.26;271352;1272;22527;-82
2023/10/17 00:42:35;;;;;;;30.40;17.20;;;;;;;6.40;97.54;99558.06;269706;1272;22606;-82
2023/10/17 00:48:37;;;;;;;29.50;17.00;;;;;;;6.27;97.43;99554.31;270750;1272;22345;-82
2023/10/17 00:54:39;;;;;;;30.70;16.10;;;;;;;6.21;98.02;99553.48;270934;1273;23819;-82
2023/10/17 01:00:48;;;;;;;27.90;15.70;;;;;;;6.26;98.80;99555.55;272524;1272;22283;-82
2023/10/17 01:06:55;;;;;;;32.80;16.70;;;;;;;6.30;98.86;99560.47;272450;1272;23527;-82
2023/10/17 01:13:02;;;;;;;27.20;17.30;;;;;;;6.29;98.94;99563.16;272297;1272;22330;-82
2023/10/17 01:19:06;;;;;;;30.80;15.80;;;;;;;6.27;98.68;99559.48;272113;1272;22209;-82
2023/10/17 01:25:34;;;;;;;28.70;15.80;;;;;;;6.24;98.76;99558.89;272196;1270;22313;-81
2023/10/17 01:31:56;;;;;;;27.70;15.20;;;;;;;6.25;99.28;99557.66;272613;1273;22198;-82
2023/10/17 01:37:59;;;;;;;27.70;16.00;;;;;;;6.27;99.21;99559.92;271521;1272;22191;-82
2023/10/17 01:44:01;;;;;;;30.10;15.50;;;;;;;6.18;99.07;99561.83;272427;1272;22215;-81
2023/10/17 01:50:05;;;;;;;29.10;16.80;;;;;;;6.18;99.52;99567.10;272377;1272;22447;-83
2023/10/17 01:56:13;;;;;;;27.40;16.30;;;;;;;6.17;99.80;99569.66;272352;1272;23945;-82
2023/10/17 02:02:15;;;;;;;30.20;15.80;;;;;;;6.12;99.68;99571.33;272172;1272;22193;-82
2023/10/17 02:08:21;;;;;;;32.60;17.00;;;;;;;6.04;99.74;99575.73;272816;1274;23222;-82
2023/10/17 02:14:23;;;;;;;26.50;15.50;;;;;;;5.99;99.80;99577.34;272315;1273;22267;-82
2023/10/17 02:20:30;;;;;;;24.90;14.60;;;;;;;5.93;99.85;99575.63;272449;1272;22360;-82
2023/10/17 02:26:33;;;;;;;27.80;15.30;;;;;;;5.85;99.97;99580.73;272441;1272;22203;-82
2023/10/17 02:32:43;;;;;;;24.40;14.50;;;;;;;5.75;100.00;99583.41;272327;1272;22345;-82
2023/10/17 02:38:45;;;;;;;25.70;14.60;;;;;;;5.63;100.00;99589.55;270754;1272;22231;-82
2023/10/17 02:44:47;;;;;;;29.10;15.20;;;;;;;5.50;100.00;99585.47;272318;1272;22368;-83
2023/10/17 02:50:58;;;;;;;26.40;15.10;;;;;;;5.40;100.00;99584.44;270704;1272;23735;-82
2023/10/17 02:57:00;;;;;;;23.50;14.50;;;;;;;5.29;100.00;99589.08;270918;1272;22570;-81
2023/10/17 03:03:14;;;;;;;25.80;15.10;;;;;;;5.18;100.00;99595.70;270356;1266;22522;-83
2023/10/17 03:15:29;;;;;;;26.30;16.20;;;;;;;5.00;100.00;99602.27;272248;1272;22221;-81
2023/10/17 03:21:34;;;;;;;25.40;15.40;;;;;;;4.86;99.99;99605.48;272423;1272;22354;-81
2023/10/17 03:27:37;;;;;;;27.80;15.90;;;;;;;4.63;99.84;99613.33;272071;1273;23818;-83
2023/10/17 03:33:43;;;;;;;29.40;17.00;;;;;;;4.45;99.98;99620.02;269819;1272;22197;-81
2023/10/17 03:39:51;;;;;;;19.10;11.70;;;;;;;4.24;99.71;99624.27;270869;1272;22398;-81
2023/10/17 03:45:56;;;;;;;29.00;15.70;;;;;;;3.96;99.71;99623.96;272783;1276;22208;-81
2023/10/17 03:52:03;;;;;;;31.90;17.80;;;;;;;3.88;100.00;99620.30;271914;1262;1062053;-81
2023/10/17 03:58:18;;;;;;;32.40;17.60;;;;;;;3.77;99.99;99621.58;272963;1273;22216;-83
2023/10/17 04:04:35;;;;;;;39.80;19.80;;;;;;;3.64;100.00;99618.15;272318;1272;22325;-82
2023/10/17 04:10:49;;;;;;;48.00;23.00;;;;;;;3.56;100.00;99613.92;272397;1272;23151;-82
2023/10/17 04:16:52;;;;;;;44.80;22.80;;;;;;;3.45;100.00;99610.44;272325;1272;22427;-82
2023/10/17 04:22:56;;;;;;;46.40;23.00;;;;;;;3.36;100.00;99607.46;272375;1272;22454;-84
2023/10/17 04:29:10;;;;;;;44.10;22.00;;;;;;;3.30;100.00;99606.61;272477;1272;22451;-82
2023/10/17 04:35:12;;;;;;;34.40;17.80;;;;;;;3.22;100.00;99608.14;272473;1272;22365;-82
2023/10/17 04:41:41;;;;;;;27.60;16.00;;;;;;;3.15;100.00;99606.11;272484;1272;22320;-82
2023/10/17 04:47:46;;;;;;;29.90;17.30;;;;;;;3.05;100.00;99606.52;270543;1272;23632;-82
2023/10/17 04:54:17;;;;;;;31.10;17.50;;;;;;;2.95;100.00;99607.63;272460;1272;22433;-82
2023/10/17 05:00:52;;;;;;;27.50;16.60;;;;;;;2.82;100.00;99608.84;271943;1272;23071;-82
2023/10/17 05:07:14;;;;;;;30.10;17.50;;;;;;;2.73;100.00;99615.30;271342;1272;22671;-82
2023/10/17 06:17:27;;;;;;;26.70;16.30;;;;;;;4.30;100.00;99681.04;272043;1265;22435;-81
2023/10/17 06:37:07;;;;;;;29.70;17.20;;;;;;;4.64;100.00;99685.98;272159;1275;22353;-83
2023/10/17 06:43:54;;;;;;;33.10;18.50;;;;;;;4.76;100.00;99695.82;263732;1273;10001389;-83
2023/10/17 06:58:13;;;;;;;33.70;19.90;;;;;;;5.08;100.00;99702.10;271910;1276;22263;-83
2023/10/17 07:04:55;;;;;;;;;;;;;;;5.36;100.00;99706.58;272167;1277;22422;-82
2023/10/17 07:17:28;;;;;;;36.30;20.90;;;;;;;6.16;100.00;99710.86;270102;1272;23685;-83
2023/10/17 07:23:53;;;;;;;39.00;22.40;;;;;;;6.53;100.00;99707.17;272206;1273;22179;-84
2023/10/17 07:30:57;;;;;;;37.50;22.60;;;;;;;6.83;100.00;99703.14;272144;1274;23745;-83
2023/10/17 07:37:53;;;;;;;38.80;22.50;;;;;;;7.31;100.00;99700.27;272359;1273;22183;-83
2023/10/17 07:44:41;;;;;;;36.60;21.40;;;;;;;7.73;100.00;99692.36;272145;1272;22322;-87
2023/10/17 07:51:23;;;;;;;33.60;20.80;;;;;;;7.91;100.00;99689.23;272153;1273;22430;-84
2023/10/17 07:57:51;;;;;;;;;;;;;;;;;;;;;
2023/10/17 08:11:36;;;;;;;28.70;16.00;;;;;;;8.94;99.89;99700.22;272533;1268;22309;-84
2023/10/17 08:18:30;;;;;;;26.80;15.60;;;;;;;9.29;98.78;99696.44;272192;1274;22276;-83
2023/10/17 08:33:23;;;;;;;;;;;;;;;;;;;;;
2023/10/17 08:40:27;;;;;;;20.50;12.90;;;;;;;11.71;95.18;99686.11;272283;1274;22250;-84
2023/10/17 08:47:22;;;;;;;18.70;10.80;;;;;;;12.57;93.91;99689.39;272562;1277;22230;-85
2023/10/17 08:53:30;;;;;;;21.00;12.30;;;;;;;13.19;91.46;99691.15;270981;1274;22632;-84
2023/10/17 09:07:41;;;;;;;15.80;9.00;;;;;;;14.77;86.78;99689.63;272011;1275;22240;-84
2023/10/17 09:20:16;;;;;;;19.70;9.20;;;;;;;15.19;85.22;99689.42;271224;1272;22565;-86
2023/10/17 09:27:03;;;;;;;10.30;5.90;;;;;;;15.63;82.91;99686.57;272022;1274;23557;-85
2023/10/17 09:33:31;;;;;;;8.80;5.60;;;;;;;15.39;79.57;99687.83;272699;1273;22165;-85
2023/10/17 09:40:11;;;;;;;9.80;5.10;;;;;;;15.29;77.89;99690.58;272761;1272;22188;-85
2023/10/17 09:46:16;;;;;;;16.50;6.90;;;;;;;14.80;75.72;99685.46;272384;1272;23092;-84
2023/10/17 09:52:31;;;;;;;18.80;9.80;;;;;;;13.89;75.03;99685.36;271770;1272;22509;-84
2023/10/17 09:59:16;;;;;;;17.30;9.70;;;;;;;13.18;75.06;99683.91;271953;1272;22247;-84
2023/10/17 10:05:55;;;;;;;11.40;6.40;;;;;;;12.70;75.49;99671.83;272216;1272;22848;-84
2023/10/17 10:12:01;;;;;;;15.10;9.00;;;;;;;12.92;76.73;99665.44;272299;1273;23088;-83
2023/10/17 10:18:04;;;;;;;16.60;9.00;;;;;;;13.84;76.48;99653.45;271625;1272;22192;-84
2023/10/17 10:24:46;;;;;;;12.80;6.90;;;;;;;14.66;74.07;99645.15;270863;1273;22940;-84
2023/10/17 10:30:52;;;;;;;18.40;7.30;;;;;;;15.10;73.20;99637.48;271359;1272;22566;-84
2023/10/17 10:37:13;;;;;;;;;;;;;;;;;;;;;
2023/10/17 10:43:49;;;;;;;9.70;5.10;;;;;;;14.73;70.98;99620.95;272360;1272;22477;-84
2023/10/17 10:50:11;;;;;;;8.50;5.10;;;;;;;13.99;71.22;99612.38;271547;1272;22548;-84
2023/10/17 10:56:35;;;;;;;8.80;5.20;;;;;;;13.18;70.48;99606.22;269871;1272;22621;-84
2023/10/17 11:02:37;;;;;;;8.90;4.80;;;;;;;12.62;68.76;99606.59;270109;1273;22546;-84
2023/10/17 11:09:30;;;;;;;8.80;4.70;;;;;;;12.33;68.57;99603.23;271884;1272;22316;-85
2023/10/17 11:15:32;;;;;;;13.60;5.70;;;;;;;12.24;68.12;99596.28;270841;1275;22250;-85
2023/10/17 11:22:06;;;;;;;11.10;5.80;;;;;;;12.04;67.28;99583.52;270594;1272;22197;-83
2023/10/17 11:28:08;;;;;;;7.90;4.50;;;;;;;11.98;67.55;99573.70;272320;1272;22329;-85
2023/10/17 11:34:14;;;;;;;8.70;4.80;;;;;;;12.00;66.95;99575.23;272668;1274;23327;-83
2023/10/17 11:40:54;;;;;;;10.20;5.10;;;;;;;12.02;66.54;99573.54;272773;1272;22681;-84
2023/10/17 11:47:10;;;;;;;5.10;3.80;;;;;;;12.10;65.91;99569.27;271992;1272;23342;-84
2023/10/17 11:54:05;;;;;;;8.50;5.10;;;;;;;12.18;65.68;99566.39;273111;1273;22516;-84
2023/10/17 12:06:47;;;;;;;8.20;4.40;;;;;;;12.09;65.11;99558.52;271863;1274;22194;-84
2023/10/17 12:13:06;;;;;;;9.00;5.10;;;;;;;12.06;64.82;99553.60;272301;1272;22199;-85
2023/10/17 12:19:31;;;;;;;10.20;5.20;;;;;;;12.10;64.43;99546.76;272554;1275;22171;-85
2023/10/17 12:25:55;;;;;;;8.30;3.40;;;;;;;12.13;64.37;99538.97;272426;1275;22342;-83
2023/10/17 12:32:04;;;;;;;11.30;3.80;;;;;;;12.01;63.04;99529.40;272732;1278;22202;-84
2023/10/17 12:38:25;;;;;;;8.60;3.90;;;;;;;11.91;63.50;99519.52;272365;1275;23076;-85
2023/10/17 12:45:18;;;;;;;3.90;2.50;;;;;;;11.99;63.70;99514.85;272526;1271;22990;-85
2023/10/17 12:51:47;;;;;;;5.40;3.10;;;;;;;11.95;62.65;99511.20;272270;1275;23063;-85
2023/10/17 12:57:51;;;;;;;4.80;2.10;;;;;;;11.76;62.15;99505.53;272111;1273;22332;-84
2023/10/17 13:03:57;;;;;;;4.10;2.80;;;;;;;11.86;62.58;99496.65;272738;1275;22207;-85
2023/10/17 13:10:00;;;;;;;7.60;3.10;;;;;;;11.97;62.29;99486.68;272424;1273;22213;-83
2023/10/17 13:16:05;;;;;;;4.10;2.70;;;;;;;11.73;61.25;99483.30;272064;1268;22666;-84
2023/10/17 13:22:08;;;;;;;3.90;2.60;;;;;;;11.53;60.85;99478.30;269733;1273;23795;-84
2023/10/17 13:28:43;;;;;;;6.10;3.20;;;;;;;11.57;60.74;99472.56;272434;1273;22196;-83
2023/10/17 13:34:51;;;;;;;8.50;3.50;;;;;;;11.62;60.94;99467.93;272247;1273;22843;-83
2023/10/17 13:41:02;;;;;;;6.10;2.80;;;;;;;11.65;60.30;99463.59;272595;1273;22217;-84
2023/10/17 13:47:25;;;;;;;6.00;3.50;;;;;;;11.64;60.25;99455.84;272734;1272;22216;-84
2023/10/17 13:53:50;;;;;;;5.40;3.40;;;;;;;11.59;60.35;99446.88;272491;1273;23828;-84
2023/10/17 14:00:23;;;;;;;3.90;2.70;;;;;;;11.51;59.91;99445.12;271410;1273;22708;-83
2023/10/17 14:07:33;;;;;;;5.00;2.90;;;;;;;11.34;59.77;99444.40;272191;1273;22326;-84
2023/10/17 14:14:11;;;;;;;6.90;3.90;;;;;;;11.37;60.23;99442.56;272145;1272;22351;-84
2023/10/17 14:20:18;;;;;;;7.90;4.00;;;;;;;11.32;60.19;99436.45;272882;1272;22186;-82
2023/10/17 14:26:30;;;;;;;7.80;3.70;;;;;;;11.17;60.34;99431.05;272447;1272;22195;-84
2023/10/17 14:32:53;;;;;;;8.90;4.00;;;;;;;11.17;60.75;99424.71;271608;1272;22582;-84
2023/10/17 14:38:59;;;;;;;5.30;3.00;;;;;;;11.13;59.77;99422.22;270418;1273;22565;-85
2023/10/17 14:45:09;;;;;;;9.40;5.20;;;;;;;11.07;60.23;99419.31;271838;1272;22366;-83
2023/10/17 14:51:33;;;;;;;;;;;;;;;;;;;;;
2023/10/17 14:58:20;;;;;;;8.30;5.70;;;;;;;10.72;61.40;99415.75;271961;1257;22596;-84
2023/10/17 15:05:01;;;;;;;10.10;5.00;;;;;;;10.49;61.21;99414.10;271837;1272;22327;-84
2023/10/17 15:11:57;;;;;;;;;;;;;;;;;;;;;
2023/10/17 15:18:31;;;;;;;10.00;3.70;;;;;;;9.94;62.44;99427.16;272406;1270;22336;-85
2023/10/17 15:24:35;;;;;;;5.80;3.60;;;;;;;9.89;64.42;99426.27;271970;1272;23002;-84
2023/10/17 15:31:11;;;;;;;8.70;4.40;;;;;;;9.84;65.93;99426.08;272299;1272;22333;-85
2023/10/17 15:37:35;;;;;;;10.60;4.20;;;;;;;9.64;66.50;99427.84;272807;1277;22188;-84
2023/10/17 15:43:40;;;;;;;14.50;6.50;;;;;;;9.47;67.84;99429.20;270444;1273;23278;-84
2023/10/17 15:49:44;;;;;;;12.90;5.80;;;;;;;9.27;68.30;99430.70;272006;1272;351694;-84
2023/10/17 15:56:15;;;;;;;11.00;5.70;;;;;;;9.11;70.08;99433.13;271725;1272;22207;-86
2023/10/17 16:02:17;;;;;;;15.40;6.30;;;;;;;9.01;70.81;99436.80;272239;1272;22944;-84
2023/10/17 16:08:45;;;;;;;13.40;6.90;;;;;;;8.99;71.38;99446.48;272376;1272;23205;-85
2023/10/17 16:15:10;;;;;;;10.10;7.00;;;;;;;8.96;72.26;99445.81;272705;1272;22907;-85
2023/10/17 16:21:40;;;;;;;12.90;7.90;;;;;;;8.82;73.30;99441.77;272303;1272;22552;-84
2023/10/17 16:28:26;;;;;;;33.10;10.00;;;;;;;8.70;72.91;99434.59;271112;1273;23839;-84
2023/10/17 16:35:07;;;;;;;;;;;;;;;;;;;;;
2023/10/17 16:41:31;;;;;;;;;;;;;;;;;;;;;
2023/10/17 16:47:50;;;;;;;22.40;11.30;;;;;;;8.15;75.04;99441.93;272308;1272;22176;-84
2023/10/17 16:54:13;;;;;;;22.50;12.80;;;;;;;8.09;76.09;99440.58;271907;1273;25424;-84
2023/10/17 17:01:23;;;;;;;;;;;;;;;;;;;;;
2023/10/17 17:07:40;;;;;;;29.40;17.30;;;;;;;7.87;77.34;99431.87;271913;1272;22500;-84
2023/10/17 17:14:05;;;;;;;29.00;17.90;;;;;;;7.66;77.40;99428.45;270181;1273;22553;-84
2023/10/17 17:20:28;;;;;;;31.20;16.00;;;;;;;7.54;78.40;99431.67;270883;1256;22310;-83
2023/10/17 17:26:56;;;;;;;29.70;16.40;;;;;;;7.54;79.00;99433.01;272181;1273;22246;-84
2023/10/17 17:33:13;;;;;;;26.90;15.20;;;;;;;7.48;79.73;99427.61;271284;1264;22107;-84
2023/10/17 17:39:27;;;;;;;24.00;13.90;;;;;;;7.39;80.07;99424.98;271901;1272;22147;-84
2023/10/17 17:45:51;;;;;;;25.30;14.70;;;;;;;7.23;80.45;99423.19;270423;1272;22321;-84
2023/10/17 17:51:55;;;;;;;20.30;12.80;;;;;;;7.25;80.90;99430.86;270390;1272;22520;-84
2023/10/17 17:58:39;;;;;;;;;;;;;;;;;;;;;
2023/10/17 18:05:06;;;;;;;26.90;15.10;;;;;;;7.13;81.71;99433.52;272620;1273;22182;-84
2023/10/17 18:11:43;;;;;;;;;;;;;;;;;;;;;
2023/10/17 18:18:33;;;;;;;37.10;20.90;;;;;;;6.59;81.86;99426.46;271478;1272;24478;-83
2023/10/17 18:25:45;;;;;;;35.90;20.70;;;;;;;6.55;83.28;99424.05;270345;1272;22521;-82
2023/10/17 18:32:27;;;;;;;31.00;18.30;;;;;;;6.44;83.49;99429.61;271505;1272;22360;-83
2023/10/17 18:39:13;;;;;;;37.80;20.40;;;;;;;6.19;83.82;99424.92;269885;1264;22503;-84
2023/10/17 18:45:25;;;;;;;38.60;20.60;;;;;;;5.87;83.74;99433.85;271453;1273;22200;-83
2023/10/17 18:51:27;;;;;;;46.80;23.30;;;;;;;5.72;84.81;99444.99;270857;1273;22570;-83
2023/10/17 18:57:57;;;;;;;39.50;22.30;;;;;;;5.63;85.52;99453.42;271021;1273;22273;-84
2023/10/17 19:04:04;;;;;;;46.90;26.30;;;;;;;5.52;86.18;99457.98;270124;1272;22552;-83
2023/10/17 19:10:28;;;;;;;46.60;25.50;;;;;;;5.42;86.30;99455.76;270990;1272;22579;-83
2023/10/17 19:16:31;;;;;;;46.90;27.70;;;;;;;5.31;86.33;99463.04;270443;1272;22670;-83
2023/10/17 19:22:38;;;;;;;50.70;27.90;;;;;;;5.19;86.47;99465.83;272308;1273;23064;-84
2023/10/17 19:28:50;;;;;;;;;;;;;;;5.04;86.59;99458.33;270504;1272;22497;-83
2023/10/17 19:34:59;;;;;;;59.50;32.40;;;;;;;4.88;87.05;99458.55;272484;1273;22178;-83
2023/10/17 19:41:21;;;;;;;50.40;29.60;;;;;;;4.72;86.96;99449.37;271142;1272;23596;-83
2023/10/17 19:47:28;;;;;;;61.10;33.10;;;;;;;4.46;87.15;99451.75;271055;1272;22412;-82
2023/10/17 19:54:17;;;;;;;54.30;30.90;;;;;;;4.32;87.79;99449.31;272205;1273;22222;-84
2023/10/17 20:01:02;;;;;;;66.10;34.60;;;;;;;4.22;87.97;99444.48;272851;1275;22203;-83
2023/10/17 20:07:10;;;;;;;59.40;32.70;;;;;;;4.10;88.25;99440.23;271245;1273;22987;-83
2023/10/17 20:13:25;;;;;;;65.90;35.10;;;;;;;4.02;88.71;99440.27;272656;1273;24212;-83
2023/10/17 20:19:43;;;;;;;67.50;36.80;;;;;;;3.93;89.23;99439.33;271951;1272;22582;-82
2023/10/17 20:26:39;;;;;;;74.30;38.20;;;;;;;3.81;89.07;99435.52;271163;1272;22538;-83
2023/10/17 20:32:54;;;;;;;67.50;35.00;;;;;;;3.71;89.24;99428.89;271121;1272;25357;-82
2023/10/17 20:39:05;;;;;;;63.30;34.10;;;;;;;3.63;89.42;99424.66;262823;1272;10001391;-83
2023/10/17 20:45:23;;;;;;;;;;;;;;;;;;;;;
2023/10/17 20:52:02;;;;;;;71.00;36.70;;;;;;;3.33;89.88;99423.23;272075;1272;22784;-83
2023/10/17 20:58:49;;;;;;;67.70;36.10;;;;;;;3.20;90.03;99421.70;272793;1275;22875;-83
2023/10/17 21:05:18;;;;;;;69.10;35.70;;;;;;;3.18;90.50;99431.39;272507;1272;22215;-83
2023/10/17 21:11:41;;;;;;;59.40;33.80;;;;;;;3.12;90.67;99436.13;272469;1272;22305;-83
2023/10/17 21:18:30;;;;;;;78.00;38.70;;;;;;;3.01;90.89;99430.00;272623;1273;22207;-84
2023/10/17 21:25:27;;;;;;;75.30;37.80;;;;;;;2.82;90.57;99427.69;272761;1274;22183;-83
2023/10/17 21:31:53;;;;;;;;;;;;;;;;;;;;;
2023/10/17 21:38:30;;;;;;;63.30;35.40;;;;;;;2.54;91.47;99420.84;272324;1272;22345;-84
2023/10/17 21:45:56;;;;;;;;;;;;;;;;;;;;;
2023/10/17 21:53:27;;;;;;;65.80;34.80;;;;;;;2.51;92.09;99390.73;272514;1272;22193;-83
2023/10/17 22:00:05;;;;;;;;;;;;;;;;;;;;;
2023/10/17 22:06:20;;;;;;;61.40;35.60;;;;;;;2.71;93.96;99397.02;272327;1272;22529;-83
2023/10/17 22:12:49;;;;;;;68.50;36.90;;;;;;;2.82;94.16;99386.69;270837;1272;22531;-83
2023/10/17 22:19:11;;;;;;;62.80;34.60;;;;;;;2.87;94.40;99385.64;270840;1272;22560;-83
2023/10/17 22:25:33;;;;;;;61.50;33.60;;;;;;;2.91;94.62;99384.29;271890;1272;22220;-82
2023/10/17 22:31:36;;;;;;;59.10;33.80;;;;;;;2.89;94.35;99380.66;270965;1272;22193;-84
2023/10/17 22:37:39;;;;;;;60.10;33.20;;;;;;;2.84;94.59;99378.73;272233;1272;22310;-82
2023/10/17 22:43:43;;;;;;;60.00;31.80;;;;;;;2.80;94.60;99375.52;272572;1268;23352;-82
2023/10/17 22:49:46;;;;;;;52.10;30.10;;;;;;;2.78;94.83;99372.93;270097;1272;25358;-82
2023/10/17 22:55:51;;;;;;;54.50;28.40;;;;;;;2.79;95.06;99373.05;271244;1273;22535;-82
2023/10/17 23:02:11;;;;;;;59.10;31.50;;;;;;;2.77;95.05;99373.54;272586;1273;22543;-82
2023/10/17 23:08:16;;;;;;;62.00;32.40;;;;;;;2.75;94.84;99377.20;272841;1271;22226;-83
2023/10/17 23:14:18;;;;;;;59.90;31.00;;;;;;;2.62;94.55;99379.38;272486;1272;22432;-83
2023/10/17 23:20:28;;;;;;;60.50;31.70;;;;;;;2.51;94.50;99382.01;271240;1265;22590;-83
2023/10/17 23:26:42;;;;;;;60.00;31.40;;;;;;;2.35;94.08;99380.27;269971;1272;22469;-83
2023/10/17 23:32:44;;;;;;;64.60;32.90;;;;;;;2.18;93.99;99378.22;270824;1271;22965;-81
2023/10/17 23:39:08;;;;;;;60.20;30.00;;;;;;;1.99;93.72;99373.01;272883;1272;22255;-82
2023/10/17 23:45:38;;;;;;;58.60;33.20;;;;;;;1.75;93.71;99378.70;271681;1272;23224;-82
2023/10/17 23:51:47;;;;;;;60.30;30.70;;;;;;;1.69;94.53;99381.33;272013;1272;22436;-82
2023/10/17 23:57:54;;;;;;;59.30;31.20;;;;;;;1.73;94.78;99389.48;272425;1272;22469;-81
